Hlavní strana
METAR-TAF:

METAR-TAF

Letiště :

Ankara Esenboğa, Turecko

Letiště Ankara-Esenboğa

zeměpisná šířka: 40-07N, zeměpisná délka: 032-59E, výška: 953 m

Aktuální stav počasí

Zpráva byla vytvořena před 47 minutami, v 08:50 UTC
Severovýchodní vítr 8 kt
Teplota -2°C
Vlhkost vzduchu 80%
Tlak 1021 hPa
Viditelnost 10 km a více
Oblačno až skoro zataženo ve výšce 3500 ft
Oblačno až skoro zataženo ve výšce 8000 ft
slabé sněžení

METAR: LTAC 240850Z 04008KT 9999 -SN BKN035 BKN080 M02/M05 Q1021 NOSIG RMK RWY21L 02007KT RWY03L 04007KT RWY21R 05008KT

Čas: 12:37 (09:37 UTC)

Předpověď počasí

Zpráva byla vytvořena před 3 hodinami a 18 minutami, v 06:19 UTC
Předpověď platná od 24 v 06 UTC do 25 v 06 UTC
Severoseverozápadní vítr 8 kt
Viditelnost 10 km a více
Polojasno ve výšce 4000 ft
Dočasný
od 24 v 06 UTC do 24 v 10 UTC
Oblačno až skoro zataženo ve výšce 3000 ft
Oblačno až skoro zataženo ve výšce 8000 ft
slabé sněžení

TAF: LTAC 240619Z 2406/2506 34008KT 9999 SCT040 TEMPO 2406/2410 -SN BKN030 BKN080

Stav a předpovědi počasí z více než 4 000 letišť (zprávy METAR a TAF).

Červené a žluté tečky na mapě představují dostupné meteorologické stanice.

Když kurzor umístíte na tečku, zobrazí se název stanice.

Pak kliknutím zobrazíte stav a předpověď počasí.

Chcete-li změnit mapu, kliknutím na zelené tlačítko se znaménkem +mapu přiblížíte, kliknutím na zelené tlačítko se znaménkem – mapu oddálíte a kliknutím na zelené šipky přejdete na sousední mapy.


METAR-TAF: